sensor_id;sensor_type;location;lat;lon;timestamp;P1;durP1;ratioP1;P2;durP2;ratioP2
66384;SDS011;53426;55.872;37.462;2023-12-20T00:01:54;2.45;;;1.40;;
66384;SDS011;53426;55.872;37.462;2023-12-20T00:04:21;1.30;;;1.30;;
66384;SDS011;53426;55.872;37.462;2023-12-20T00:06:47;1.92;;;1.83;;
66384;SDS011;53426;55.872;37.462;2023-12-20T00:09:13;2.28;;;1.50;;
66384;SDS011;53426;55.872;37.462;2023-12-20T00:11:40;1.85;;;1.75;;
66384;SDS011;53426;55.872;37.462;2023-12-20T00:14:08;4.22;;;1.50;;
66384;SDS011;53426;55.872;37.462;2023-12-20T00:16:34;1.52;;;1.50;;
66384;SDS011;53426;55.872;37.462;2023-12-20T00:19:03;1.70;;;1.60;;
66384;SDS011;53426;55.872;37.462;2023-12-20T00:21:46;1.70;;;1.60;;
66384;SDS011;53426;55.872;37.462;2023-12-20T00:24:14;1.65;;;1.23;;
66384;SDS011;53426;55.872;37.462;2023-12-20T00:26:43;1.35;;;1.30;;
66384;SDS011;53426;55.872;37.462;2023-12-20T00:29:10;1.25;;;1.08;;
66384;SDS011;53426;55.872;37.462;2023-12-20T00:31:37;3.63;;;1.40;;
66384;SDS011;53426;55.872;37.462;2023-12-20T00:34:03;2.10;;;1.30;;
66384;SDS011;53426;55.872;37.462;2023-12-20T00:36:29;1.20;;;1.20;;
66384;SDS011;53426;55.872;37.462;2023-12-20T00:38:57;4.38;;;1.25;;
66384;SDS011;53426;55.872;37.462;2023-12-20T00:41:23;1.17;;;1.17;;
66384;SDS011;53426;55.872;37.462;2023-12-20T00:43:50;1.30;;;1.20;;
66384;SDS011;53426;55.872;37.462;2023-12-20T00:46:16;2.00;;;1.10;;
66384;SDS011;53426;55.872;37.462;2023-12-20T00:48:42;1.10;;;1.10;;
66384;SDS011;53426;55.872;37.462;2023-12-20T00:51:11;2.50;;;1.23;;
66384;SDS011;53426;55.872;37.462;2023-12-20T00:53:37;1.42;;;1.33;;
66384;SDS011;53426;55.872;37.462;2023-12-20T00:56:02;1.40;;;1.30;;
66384;SDS011;53426;55.872;37.462;2023-12-20T00:58:29;1.40;;;1.30;;
66384;SDS011;53426;55.872;37.462;2023-12-20T01:00:55;2.25;;;1.25;;
66384;SDS011;53426;55.872;37.462;2023-12-20T01:03:21;1.27;;;1.27;;
66384;SDS011;53426;55.872;37.462;2023-12-20T01:05:47;1.52;;;1.42;;
66384;SDS011;53426;55.872;37.462;2023-12-20T01:08:13;2.03;;;1.35;;
66384;SDS011;53426;55.872;37.462;2023-12-20T01:10:39;1.75;;;1.60;;
66384;SDS011;53426;55.872;37.462;2023-12-20T01:13:05;1.52;;;1.42;;
66384;SDS011;53426;55.872;37.462;2023-12-20T01:15:31;4.20;;;2.13;;
66384;SDS011;53426;55.872;37.462;2023-12-20T01:17:57;1.98;;;1.88;;
66384;SDS011;53426;55.872;37.462;2023-12-20T01:20:26;2.28;;;2.08;;
66384;SDS011;53426;55.872;37.462;2023-12-20T01:22:51;2.20;;;2.10;;
66384;SDS011;53426;55.872;37.462;2023-12-20T01:25:18;2.28;;;2.08;;
66384;SDS011;53426;55.872;37.462;2023-12-20T01:27:44;2.70;;;1.60;;
66384;SDS011;53426;55.872;37.462;2023-12-20T01:30:10;5.45;;;2.08;;
66384;SDS011;53426;55.872;37.462;2023-12-20T01:32:36;2.05;;;1.70;;
66384;SDS011;53426;55.872;37.462;2023-12-20T01:35:02;3.40;;;2.25;;
66384;SDS011;53426;55.872;37.462;2023-12-20T01:37:29;2.20;;;2.00;;
66384;SDS011;53426;55.872;37.462;2023-12-20T01:39:55;2.17;;;1.98;;
66384;SDS011;53426;55.872;37.462;2023-12-20T01:42:21;5.47;;;2.30;;
66384;SDS011;53426;55.872;37.462;2023-12-20T01:44:47;4.65;;;2.20;;
66384;SDS011;53426;55.872;37.462;2023-12-20T01:47:13;3.08;;;2.15;;
66384;SDS011;53426;55.872;37.462;2023-12-20T01:49:40;2.60;;;2.33;;
66384;SDS011;53426;55.872;37.462;2023-12-20T01:52:07;2.38;;;2.25;;
66384;SDS011;53426;55.872;37.462;2023-12-20T01:54:34;4.20;;;2.83;;
66384;SDS011;53426;55.872;37.462;2023-12-20T01:57:01;3.08;;;2.65;;
66384;SDS011;53426;55.872;37.462;2023-12-20T01:59:28;4.20;;;2.70;;
66384;SDS011;53426;55.872;37.462;2023-12-20T02:01:57;4.10;;;3.00;;
66384;SDS011;53426;55.872;37.462;2023-12-20T02:04:23;4.25;;;2.80;;
66384;SDS011;53426;55.872;37.462;2023-12-20T02:06:50;3.08;;;2.30;;
66384;SDS011;53426;55.872;37.462;2023-12-20T02:09:18;2.10;;;2.00;;
66384;SDS011;53426;55.872;37.462;2023-12-20T02:11:44;4.22;;;2.33;;
66384;SDS011;53426;55.872;37.462;2023-12-20T02:14:10;4.30;;;2.40;;
66384;SDS011;53426;55.872;37.462;2023-12-20T02:16:36;2.60;;;2.30;;
66384;SDS011;53426;55.872;37.462;2023-12-20T02:19:03;3.38;;;2.53;;
66384;SDS011;53426;55.872;37.462;2023-12-20T02:21:34;4.97;;;2.13;;
66384;SDS011;53426;55.872;37.462;2023-12-20T02:24:00;7.88;;;2.70;;
66384;SDS011;53426;55.872;37.462;2023-12-20T02:26:26;4.70;;;2.88;;
66384;SDS011;53426;55.872;37.462;2023-12-20T02:28:52;2.53;;;1.80;;
66384;SDS011;53426;55.872;37.462;2023-12-20T02:31:23;3.08;;;2.00;;
66384;SDS011;53426;55.872;37.462;2023-12-20T02:33:49;5.57;;;2.10;;
66384;SDS011;53426;55.872;37.462;2023-12-20T02:36:15;2.22;;;2.03;;
66384;SDS011;53426;55.872;37.462;2023-12-20T02:38:41;4.03;;;2.30;;
66384;SDS011;53426;55.872;37.462;2023-12-20T02:41:07;4.90;;;2.00;;
66384;SDS011;53426;55.872;37.462;2023-12-20T02:43:33;4.28;;;2.05;;
66384;SDS011;53426;55.872;37.462;2023-12-20T02:45:59;3.25;;;1.80;;
66384;SDS011;53426;55.872;37.462;2023-12-20T02:48:25;3.50;;;1.90;;
66384;SDS011;53426;55.872;37.462;2023-12-20T02:50:50;1.70;;;1.60;;
66384;SDS011;53426;55.872;37.462;2023-12-20T02:53:17;6.90;;;2.05;;
66384;SDS011;53426;55.872;37.462;2023-12-20T02:55:43;1.80;;;1.70;;
66384;SDS011;53426;55.872;37.462;2023-12-20T02:58:09;1.60;;;1.50;;
66384;SDS011;53426;55.872;37.462;2023-12-20T03:00:35;4.40;;;1.88;;
66384;SDS011;53426;55.872;37.462;2023-12-20T03:03:00;8.57;;;1.92;;
66384;SDS011;53426;55.872;37.462;2023-12-20T03:05:26;3.50;;;1.83;;
66384;SDS011;53426;55.872;37.462;2023-12-20T03:07:52;4.53;;;1.70;;
66384;SDS011;53426;55.872;37.462;2023-12-20T03:10:18;2.67;;;1.80;;
66384;SDS011;53426;55.872;37.462;2023-12-20T03:12:44;2.28;;;1.70;;
66384;SDS011;53426;55.872;37.462;2023-12-20T03:15:10;2.95;;;1.85;;
66384;SDS011;53426;55.872;37.462;2023-12-20T03:17:36;2.33;;;1.90;;
66384;SDS011;53426;55.872;37.462;2023-12-20T03:20:03;5.05;;;2.10;;
66384;SDS011;53426;55.872;37.462;2023-12-20T03:22:30;2.60;;;2.40;;
66384;SDS011;53426;55.872;37.462;2023-12-20T03:24:56;7.95;;;2.33;;
66384;SDS011;53426;55.872;37.462;2023-12-20T03:27:21;3.08;;;2.40;;
66384;SDS011;53426;55.872;37.462;2023-12-20T03:29:49;4.50;;;2.40;;
66384;SDS011;53426;55.872;37.462;2023-12-20T03:32:15;4.22;;;2.03;;
66384;SDS011;53426;55.872;37.462;2023-12-20T03:34:41;3.53;;;2.50;;
66384;SDS011;53426;55.872;37.462;2023-12-20T03:37:07;3.60;;;2.20;;
66384;SDS011;53426;55.872;37.462;2023-12-20T03:39:33;4.43;;;2.10;;
66384;SDS011;53426;55.872;37.462;2023-12-20T03:41:59;4.38;;;2.03;;
66384;SDS011;53426;55.872;37.462;2023-12-20T03:44:27;6.38;;;2.35;;
66384;SDS011;53426;55.872;37.462;2023-12-20T03:46:53;2.30;;;1.80;;
66384;SDS011;53426;55.872;37.462;2023-12-20T03:49:20;2.78;;;2.03;;
66384;SDS011;53426;55.872;37.462;2023-12-20T03:51:46;2.33;;;1.73;;
66384;SDS011;53426;55.872;37.462;2023-12-20T03:54:12;3.35;;;2.13;;
66384;SDS011;53426;55.872;37.462;2023-12-20T03:56:38;3.63;;;2.50;;
66384;SDS011;53426;55.872;37.462;2023-12-20T03:59:04;4.68;;;2.10;;
66384;SDS011;53426;55.872;37.462;2023-12-20T04:01:30;2.85;;;1.73;;
66384;SDS011;53426;55.872;37.462;2023-12-20T04:03:55;3.13;;;2.03;;
66384;SDS011;53426;55.872;37.462;2023-12-20T04:06:21;3.05;;;2.60;;
66384;SDS011;53426;55.872;37.462;2023-12-20T04:08:47;7.10;;;2.55;;
66384;SDS011;53426;55.872;37.462;2023-12-20T04:11:13;2.72;;;2.40;;
66384;SDS011;53426;55.872;37.462;2023-12-20T04:13:39;3.47;;;2.40;;
66384;SDS011;53426;55.872;37.462;2023-12-20T04:16:05;3.45;;;2.60;;
66384;SDS011;53426;55.872;37.462;2023-12-20T04:18:31;6.75;;;2.58;;
66384;SDS011;53426;55.872;37.462;2023-12-20T04:20:57;9.48;;;3.20;;
66384;SDS011;53426;55.872;37.462;2023-12-20T04:23:23;6.53;;;2.75;;
66384;SDS011;53426;55.872;37.462;2023-12-20T04:25:49;5.72;;;3.00;;
66384;SDS011;53426;55.872;37.462;2023-12-20T04:28:15;5.05;;;2.65;;
66384;SDS011;53426;55.872;37.462;2023-12-20T04:30:41;2.85;;;2.47;;
66384;SDS011;53426;55.872;37.462;2023-12-20T04:33:07;3.95;;;2.67;;
66384;SDS011;53426;55.872;37.462;2023-12-20T04:35:33;6.85;;;3.15;;
66384;SDS011;53426;55.872;37.462;2023-12-20T04:37:59;2.67;;;2.50;;
66384;SDS011;53426;55.872;37.462;2023-12-20T04:40:25;3.08;;;2.78;;
66384;SDS011;53426;55.872;37.462;2023-12-20T04:42:51;2.70;;;2.50;;
66384;SDS011;53426;55.872;37.462;2023-12-20T04:45:17;3.75;;;2.55;;
66384;SDS011;53426;55.872;37.462;2023-12-20T04:47:45;6.55;;;2.55;;
66384;SDS011;53426;55.872;37.462;2023-12-20T04:50:12;2.80;;;2.13;;
66384;SDS011;53426;55.872;37.462;2023-12-20T04:52:38;4.80;;;2.45;;
66384;SDS011;53426;55.872;37.462;2023-12-20T04:55:05;2.22;;;1.95;;
66384;SDS011;53426;55.872;37.462;2023-12-20T04:57:31;3.60;;;2.22;;
66384;SDS011;53426;55.872;37.462;2023-12-20T04:59:57;3.25;;;1.88;;
66384;SDS011;53426;55.872;37.462;2023-12-20T05:02:23;2.30;;;2.03;;
66384;SDS011;53426;55.872;37.462;2023-12-20T05:04:49;4.18;;;2.10;;
66384;SDS011;53426;55.872;37.462;2023-12-20T05:07:15;2.05;;;1.80;;
66384;SDS011;53426;55.872;37.462;2023-12-20T05:09:41;5.88;;;2.10;;
66384;SDS011;53426;55.872;37.462;2023-12-20T05:12:08;5.20;;;2.05;;
66384;SDS011;53426;55.872;37.462;2023-12-20T05:14:34;2.00;;;1.90;;
66384;SDS011;53426;55.872;37.462;2023-12-20T05:17:00;2.15;;;1.70;;
66384;SDS011;53426;55.872;37.462;2023-12-20T05:19:26;4.07;;;2.15;;
66384;SDS011;53426;55.872;37.462;2023-12-20T05:21:52;2.47;;;1.95;;
66384;SDS011;53426;55.872;37.462;2023-12-20T05:24:18;2.13;;;1.92;;
66384;SDS011;53426;55.872;37.462;2023-12-20T05:26:44;2.45;;;2.13;;
66384;SDS011;53426;55.872;37.462;2023-12-20T05:29:09;2.35;;;1.98;;
66384;SDS011;53426;55.872;37.462;2023-12-20T05:31:35;8.80;;;1.70;;
66384;SDS011;53426;55.872;37.462;2023-12-20T05:34:01;2.72;;;2.10;;
66384;SDS011;53426;55.872;37.462;2023-12-20T05:36:27;4.70;;;1.80;;
66384;SDS011;53426;55.872;37.462;2023-12-20T05:38:53;4.78;;;2.22;;
66384;SDS011;53426;55.872;37.462;2023-12-20T05:41:19;3.35;;;1.88;;
66384;SDS011;53426;55.872;37.462;2023-12-20T05:43:47;4.88;;;2.30;;
66384;SDS011;53426;55.872;37.462;2023-12-20T05:46:13;3.35;;;2.35;;
66384;SDS011;53426;55.872;37.462;2023-12-20T05:48:39;2.97;;;2.53;;
66384;SDS011;53426;55.872;37.462;2023-12-20T05:51:05;4.30;;;3.00;;
66384;SDS011;53426;55.872;37.462;2023-12-20T05:53:31;2.95;;;2.55;;
66384;SDS011;53426;55.872;37.462;2023-12-20T05:55:56;3.40;;;3.10;;
66384;SDS011;53426;55.872;37.462;2023-12-20T05:58:22;8.68;;;3.20;;
66384;SDS011;53426;55.872;37.462;2023-12-20T06:00:48;3.63;;;2.97;;
66384;SDS011;53426;55.872;37.462;2023-12-20T06:03:15;3.00;;;2.80;;
66384;SDS011;53426;55.872;37.462;2023-12-20T06:05:41;8.50;;;2.88;;
66384;SDS011;53426;55.872;37.462;2023-12-20T06:08:06;3.60;;;3.00;;
66384;SDS011;53426;55.872;37.462;2023-12-20T06:10:32;10.43;;;3.75;;
66384;SDS011;53426;55.872;37.462;2023-12-20T06:12:58;5.68;;;3.03;;
66384;SDS011;53426;55.872;37.462;2023-12-20T06:15:26;4.53;;;3.05;;
66384;SDS011;53426;55.872;37.462;2023-12-20T06:17:52;4.75;;;3.13;;
66384;SDS011;53426;55.872;37.462;2023-12-20T06:20:18;8.45;;;2.90;;
66384;SDS011;53426;55.872;37.462;2023-12-20T06:22:44;10.00;;;3.88;;
66384;SDS011;53426;55.872;37.462;2023-12-20T06:25:10;3.40;;;3.10;;
66384;SDS011;53426;55.872;37.462;2023-12-20T06:27:36;4.03;;;3.25;;
66384;SDS011;53426;55.872;37.462;2023-12-20T06:30:02;7.53;;;3.17;;
66384;SDS011;53426;55.872;37.462;2023-12-20T06:32:31;4.43;;;3.22;;
66384;SDS011;53426;55.872;37.462;2023-12-20T06:34:57;3.92;;;2.97;;
66384;SDS011;53426;55.872;37.462;2023-12-20T06:37:23;2.92;;;2.70;;
66384;SDS011;53426;55.872;37.462;2023-12-20T06:39:49;7.63;;;3.58;;
66384;SDS011;53426;55.872;37.462;2023-12-20T06:42:15;3.83;;;3.53;;
66384;SDS011;53426;55.872;37.462;2023-12-20T06:44:41;3.25;;;3.03;;
66384;SDS011;53426;55.872;37.462;2023-12-20T06:47:07;7.40;;;3.70;;
66384;SDS011;53426;55.872;37.462;2023-12-20T06:49:33;6.13;;;3.15;;
66384;SDS011;53426;55.872;37.462;2023-12-20T06:52:00;6.38;;;3.72;;
66384;SDS011;53426;55.872;37.462;2023-12-20T06:54:26;7.07;;;3.58;;
66384;SDS011;53426;55.872;37.462;2023-12-20T06:56:52;6.57;;;3.50;;
66384;SDS011;53426;55.872;37.462;2023-12-20T06:59:17;11.52;;;3.47;;
66384;SDS011;53426;55.872;37.462;2023-12-20T07:01:47;4.38;;;3.08;;
66384;SDS011;53426;55.872;37.462;2023-12-20T07:04:15;5.40;;;3.53;;
66384;SDS011;53426;55.872;37.462;2023-12-20T07:06:45;7.97;;;3.80;;
66384;SDS011;53426;55.872;37.462;2023-12-20T07:09:11;11.00;;;3.50;;
66384;SDS011;53426;55.872;37.462;2023-12-20T07:11:38;7.00;;;3.72;;
66384;SDS011;53426;55.872;37.462;2023-12-20T07:14:05;4.82;;;3.75;;
66384;SDS011;53426;55.872;37.462;2023-12-20T07:16:31;5.40;;;3.60;;
66384;SDS011;53426;55.872;37.462;2023-12-20T07:18:57;5.13;;;3.28;;
66384;SDS011;53426;55.872;37.462;2023-12-20T07:21:23;4.38;;;3.80;;
66384;SDS011;53426;55.872;37.462;2023-12-20T07:23:50;4.10;;;3.20;;
66384;SDS011;53426;55.872;37.462;2023-12-20T07:26:16;5.88;;;3.10;;
66384;SDS011;53426;55.872;37.462;2023-12-20T07:28:43;8.25;;;3.10;;
66384;SDS011;53426;55.872;37.462;2023-12-20T07:31:08;6.35;;;2.83;;
66384;SDS011;53426;55.872;37.462;2023-12-20T07:33:36;5.80;;;3.75;;
66384;SDS011;53426;55.872;37.462;2023-12-20T07:36:02;5.68;;;2.63;;
66384;SDS011;53426;55.872;37.462;2023-12-20T07:38:50;4.65;;;3.50;;
66384;SDS011;53426;55.872;37.462;2023-12-20T07:41:17;4.47;;;3.55;;
66384;SDS011;53426;55.872;37.462;2023-12-20T07:43:46;7.95;;;2.95;;
66384;SDS011;53426;55.872;37.462;2023-12-20T07:46:12;6.30;;;3.58;;
66384;SDS011;53426;55.872;37.462;2023-12-20T07:48:38;3.95;;;3.30;;
66384;SDS011;53426;55.872;37.462;2023-12-20T07:51:04;3.88;;;2.80;;
66384;SDS011;53426;55.872;37.462;2023-12-20T07:53:32;3.60;;;2.78;;
66384;SDS011;53426;55.872;37.462;2023-12-20T07:55:58;4.78;;;3.35;;
66384;SDS011;53426;55.872;37.462;2023-12-20T07:58:24;3.28;;;2.83;;
66384;SDS011;53426;55.872;37.462;2023-12-20T08:00:50;2.88;;;2.58;;
66384;SDS011;53426;55.872;37.462;2023-12-20T08:03:16;6.80;;;2.92;;
66384;SDS011;53426;55.872;37.462;2023-12-20T08:05:42;5.65;;;2.80;;
66384;SDS011;53426;55.872;37.462;2023-12-20T08:08:08;3.60;;;2.40;;
66384;SDS011;53426;55.872;37.462;2023-12-20T08:10:34;3.67;;;2.40;;
66384;SDS011;53426;55.872;37.462;2023-12-20T08:13:00;3.40;;;2.50;;
66384;SDS011;53426;55.872;37.462;2023-12-20T08:15:26;2.70;;;2.40;;
66384;SDS011;53426;55.872;37.462;2023-12-20T08:17:52;2.63;;;2.42;;
66384;SDS011;53426;55.872;37.462;2023-12-20T08:20:18;3.45;;;2.50;;
66384;SDS011;53426;55.872;37.462;2023-12-20T08:22:44;2.70;;;2.50;;
66384;SDS011;53426;55.872;37.462;2023-12-20T08:25:10;3.15;;;2.50;;
66384;SDS011;53426;55.872;37.462;2023-12-20T08:27:39;4.30;;;2.60;;
66384;SDS011;53426;55.872;37.462;2023-12-20T08:30:05;2.70;;;2.42;;
66384;SDS011;53426;55.872;37.462;2023-12-20T08:32:33;2.83;;;2.40;;
66384;SDS011;53426;55.872;37.462;2023-12-20T08:34:59;3.17;;;2.63;;
66384;SDS011;53426;55.872;37.462;2023-12-20T08:37:25;2.30;;;2.13;;
66384;SDS011;53426;55.872;37.462;2023-12-20T08:39:51;3.97;;;2.85;;
66384;SDS011;53426;55.872;37.462;2023-12-20T08:42:17;4.35;;;3.20;;
66384;SDS011;53426;55.872;37.462;2023-12-20T08:44:43;3.88;;;2.80;;
66384;SDS011;53426;55.872;37.462;2023-12-20T08:47:09;4.25;;;2.65;;
66384;SDS011;53426;55.872;37.462;2023-12-20T08:49:38;2.35;;;2.15;;
66384;SDS011;53426;55.872;37.462;2023-12-20T08:52:05;2.30;;;2.10;;
66384;SDS011;53426;55.872;37.462;2023-12-20T08:54:31;2.70;;;2.35;;
66384;SDS011;53426;55.872;37.462;2023-12-20T08:56:57;3.30;;;2.40;;
66384;SDS011;53426;55.872;37.462;2023-12-20T08:59:23;7.82;;;2.60;;
66384;SDS011;53426;55.872;37.462;2023-12-20T09:01:50;6.85;;;2.53;;
66384;SDS011;53426;55.872;37.462;2023-12-20T09:04:20;2.47;;;2.30;;
66384;SDS011;53426;55.872;37.462;2023-12-20T09:06:46;4.75;;;2.70;;
66384;SDS011;53426;55.872;37.462;2023-12-20T09:09:12;3.97;;;2.20;;
66384;SDS011;53426;55.872;37.462;2023-12-20T09:11:40;2.58;;;1.88;;
66384;SDS011;53426;55.872;37.462;2023-12-20T09:14:06;4.15;;;2.42;;
66384;SDS011;53426;55.872;37.462;2023-12-20T09:16:32;2.88;;;2.60;;
66384;SDS011;53426;55.872;37.462;2023-12-20T09:18:58;2.80;;;2.60;;
66384;SDS011;53426;55.872;37.462;2023-12-20T09:21:24;4.00;;;2.30;;
66384;SDS011;53426;55.872;37.462;2023-12-20T09:23:51;5.68;;;2.83;;
66384;SDS011;53426;55.872;37.462;2023-12-20T09:26:16;3.13;;;2.78;;
66384;SDS011;53426;55.872;37.462;2023-12-20T09:28:42;4.50;;;2.70;;
66384;SDS011;53426;55.872;37.462;2023-12-20T09:31:09;2.60;;;2.40;;
66384;SDS011;53426;55.872;37.462;2023-12-20T09:33:36;4.85;;;2.63;;
66384;SDS011;53426;55.872;37.462;2023-12-20T09:36:02;3.28;;;2.80;;
66384;SDS011;53426;55.872;37.462;2023-12-20T09:38:28;6.05;;;2.63;;
66384;SDS011;53426;55.872;37.462;2023-12-20T09:40:55;7.47;;;2.90;;
66384;SDS011;53426;55.872;37.462;2023-12-20T09:43:23;5.70;;;2.83;;
66384;SDS011;53426;55.872;37.462;2023-12-20T09:45:53;2.60;;;2.40;;
66384;SDS011;53426;55.872;37.462;2023-12-20T09:48:19;2.50;;;2.30;;
66384;SDS011;53426;55.872;37.462;2023-12-20T09:50:46;2.35;;;2.15;;
66384;SDS011;53426;55.872;37.462;2023-12-20T09:53:14;4.97;;;2.60;;
66384;SDS011;53426;55.872;37.462;2023-12-20T09:55:41;2.92;;;2.50;;
66384;SDS011;53426;55.872;37.462;2023-12-20T09:58:08;3.08;;;2.75;;
66384;SDS011;53426;55.872;37.462;2023-12-20T10:00:34;2.58;;;2.35;;
66384;SDS011;53426;55.872;37.462;2023-12-20T10:03:01;3.33;;;3.00;;
66384;SDS011;53426;55.872;37.462;2023-12-20T10:05:31;6.03;;;2.47;;
66384;SDS011;53426;55.872;37.462;2023-12-20T10:07:58;3.00;;;2.20;;
66384;SDS011;53426;55.872;37.462;2023-12-20T10:10:25;4.68;;;2.65;;
66384;SDS011;53426;55.872;37.462;2023-12-20T10:13:05;3.67;;;2.33;;
66384;SDS011;53426;55.872;37.462;2023-12-20T10:15:34;2.67;;;2.40;;
66384;SDS011;53426;55.872;37.462;2023-12-20T10:18:01;3.53;;;2.35;;
66384;SDS011;53426;55.872;37.462;2023-12-20T10:20:28;8.43;;;2.55;;
66384;SDS011;53426;55.872;37.462;2023-12-20T10:22:56;2.30;;;2.10;;
66384;SDS011;53426;55.872;37.462;2023-12-20T10:25:24;5.03;;;2.55;;
66384;SDS011;53426;55.872;37.462;2023-12-20T10:27:50;2.60;;;2.40;;
66384;SDS011;53426;55.872;37.462;2023-12-20T10:30:38;8.15;;;2.20;;
66384;SDS011;53426;55.872;37.462;2023-12-20T10:33:06;2.95;;;2.67;;
66384;SDS011;53426;55.872;37.462;2023-12-20T10:35:34;2.75;;;2.20;;
66384;SDS011;53426;55.872;37.462;2023-12-20T10:38:02;3.15;;;2.85;;
66384;SDS011;53426;55.872;37.462;2023-12-20T10:40:34;2.70;;;2.45;;
66384;SDS011;53426;55.872;37.462;2023-12-20T10:43:02;2.58;;;2.38;;
66384;SDS011;53426;55.872;37.462;2023-12-20T10:45:29;2.10;;;2.00;;
66384;SDS011;53426;55.872;37.462;2023-12-20T10:47:55;5.55;;;2.30;;
66384;SDS011;53426;55.872;37.462;2023-12-20T10:50:25;2.33;;;2.13;;
66384;SDS011;53426;55.872;37.462;2023-12-20T10:52:52;2.90;;;2.25;;
66384;SDS011;53426;55.872;37.462;2023-12-20T10:55:25;2.28;;;2.08;;
66384;SDS011;53426;55.872;37.462;2023-12-20T10:57:52;2.47;;;2.20;;
66384;SDS011;53426;55.872;37.462;2023-12-20T11:00:21;3.42;;;2.40;;
66384;SDS011;53426;55.872;37.462;2023-12-20T11:02:49;2.65;;;2.45;;
66384;SDS011;53426;55.872;37.462;2023-12-20T11:08:10;5.13;;;2.42;;
66384;SDS011;53426;55.872;37.462;2023-12-20T11:10:43;2.55;;;2.30;;
66384;SDS011;53426;55.872;37.462;2023-12-20T11:13:22;3.72;;;2.17;;
66384;SDS011;53426;55.872;37.462;2023-12-20T11:15:52;3.75;;;2.17;;
66384;SDS011;53426;55.872;37.462;2023-12-20T11:18:18;2.15;;;1.98;;
66384;SDS011;53426;55.872;37.462;2023-12-20T11:20:44;3.47;;;2.38;;
66384;SDS011;53426;55.872;37.462;2023-12-20T11:23:11;2.72;;;2.33;;
66384;SDS011;53426;55.872;37.462;2023-12-20T11:25:52;3.25;;;2.15;;
66384;SDS011;53426;55.872;37.462;2023-12-20T11:28:21;2.40;;;2.22;;
66384;SDS011;53426;55.872;37.462;2023-12-20T11:30:52;5.43;;;2.80;;
66384;SDS011;53426;55.872;37.462;2023-12-20T11:33:23;2.55;;;2.35;;
66384;SDS011;53426;55.872;37.462;2023-12-20T11:35:51;3.10;;;2.30;;
66384;SDS011;53426;55.872;37.462;2023-12-20T11:38:19;3.08;;;2.50;;
66384;SDS011;53426;55.872;37.462;2023-12-20T11:40:48;2.30;;;2.10;;
66384;SDS011;53426;55.872;37.462;2023-12-20T11:43:32;3.20;;;2.20;;
66384;SDS011;53426;55.872;37.462;2023-12-20T11:46:06;5.88;;;2.20;;
66384;SDS011;53426;55.872;37.462;2023-12-20T11:48:39;5.18;;;2.25;;
66384;SDS011;53426;55.872;37.462;2023-12-20T11:51:09;3.92;;;2.30;;
66384;SDS011;53426;55.872;37.462;2023-12-20T11:53:37;4.95;;;3.90;;
66384;SDS011;53426;55.872;37.462;2023-12-20T11:56:03;8.82;;;2.08;;
66384;SDS011;53426;55.872;37.462;2023-12-20T11:58:31;2.33;;;1.83;;
66384;SDS011;53426;55.872;37.462;2023-12-20T12:00:58;2.08;;;1.98;;
66384;SDS011;53426;55.872;37.462;2023-12-20T12:03:24;2.30;;;1.90;;
66384;SDS011;53426;55.872;37.462;2023-12-20T12:05:53;2.42;;;2.00;;
66384;SDS011;53426;55.872;37.462;2023-12-20T12:08:21;3.15;;;1.83;;
66384;SDS011;53426;55.872;37.462;2023-12-20T12:10:46;1.98;;;1.60;;
66384;SDS011;53426;55.872;37.462;2023-12-20T12:13:12;1.85;;;1.58;;
66384;SDS011;53426;55.872;37.462;2023-12-20T12:15:40;3.80;;;1.67;;
66384;SDS011;53426;55.872;37.462;2023-12-20T12:18:08;4.13;;;1.58;;
66384;SDS011;53426;55.872;37.462;2023-12-20T12:20:36;3.15;;;1.85;;
66384;SDS011;53426;55.872;37.462;2023-12-20T12:23:05;1.88;;;1.77;;
66384;SDS011;53426;55.872;37.462;2023-12-20T12:25:34;2.55;;;1.80;;
66384;SDS011;53426;55.872;37.462;2023-12-20T12:28:02;2.95;;;1.65;;
66384;SDS011;53426;55.872;37.462;2023-12-20T12:30:28;2.58;;;1.80;;
66384;SDS011;53426;55.872;37.462;2023-12-20T12:32:55;1.50;;;1.40;;
66384;SDS011;53426;55.872;37.462;2023-12-20T12:35:23;7.43;;;2.00;;
66384;SDS011;53426;55.872;37.462;2023-12-20T12:37:49;1.60;;;1.50;;
66384;SDS011;53426;55.872;37.462;2023-12-20T12:40:16;6.35;;;1.85;;
66384;SDS011;53426;55.872;37.462;2023-12-20T12:42:43;4.38;;;1.70;;
66384;SDS011;53426;55.872;37.462;2023-12-20T12:45:10;10.57;;;2.17;;
66384;SDS011;53426;55.872;37.462;2023-12-20T12:47:40;2.97;;;1.92;;
66384;SDS011;53426;55.872;37.462;2023-12-20T12:50:06;1.48;;;1.38;;
66384;SDS011;53426;55.872;37.462;2023-12-20T12:52:33;2.00;;;1.80;;
66384;SDS011;53426;55.872;37.462;2023-12-20T12:55:01;2.33;;;1.67;;
66384;SDS011;53426;55.872;37.462;2023-12-20T12:57:27;1.83;;;1.65;;
66384;SDS011;53426;55.872;37.462;2023-12-20T12:59:53;6.22;;;1.65;;
66384;SDS011;53426;55.872;37.462;2023-12-20T13:02:19;1.38;;;1.30;;
66384;SDS011;53426;55.872;37.462;2023-12-20T13:04:45;1.92;;;1.80;;
66384;SDS011;53426;55.872;37.462;2023-12-20T13:07:11;3.42;;;1.42;;
66384;SDS011;53426;55.872;37.462;2023-12-20T13:09:38;3.05;;;1.58;;
66384;SDS011;53426;55.872;37.462;2023-12-20T13:12:06;4.07;;;1.80;;
66384;SDS011;53426;55.872;37.462;2023-12-20T13:14:33;2.75;;;1.40;;
66384;SDS011;53426;55.872;37.462;2023-12-20T13:17:01;5.38;;;1.52;;
66384;SDS011;53426;55.872;37.462;2023-12-20T13:19:28;1.65;;;1.42;;
66384;SDS011;53426;55.872;37.462;2023-12-20T13:21:57;3.80;;;1.48;;
66384;SDS011;53426;55.872;37.462;2023-12-20T13:24:25;3.83;;;1.88;;
66384;SDS011;53426;55.872;37.462;2023-12-20T13:26:51;2.63;;;1.67;;
66384;SDS011;53426;55.872;37.462;2023-12-20T13:29:17;2.22;;;1.52;;
66384;SDS011;53426;55.872;37.462;2023-12-20T13:31:45;7.75;;;1.63;;
66384;SDS011;53426;55.872;37.462;2023-12-20T13:34:11;1.80;;;1.70;;
66384;SDS011;53426;55.872;37.462;2023-12-20T13:36:38;3.65;;;1.80;;
66384;SDS011;53426;55.872;37.462;2023-12-20T13:39:04;9.20;;;2.00;;
66384;SDS011;53426;55.872;37.462;2023-12-20T13:41:31;4.07;;;1.75;;
66384;SDS011;53426;55.872;37.462;2023-12-20T13:43:57;2.83;;;2.45;;
66384;SDS011;53426;55.872;37.462;2023-12-20T13:46:23;2.45;;;1.92;;
66384;SDS011;53426;55.872;37.462;2023-12-20T13:48:50;4.03;;;1.70;;
66384;SDS011;53426;55.872;37.462;2023-12-20T13:51:16;1.90;;;1.80;;
66384;SDS011;53426;55.872;37.462;2023-12-20T13:53:41;1.73;;;1.63;;
66384;SDS011;53426;55.872;37.462;2023-12-20T13:56:07;6.13;;;1.70;;
66384;SDS011;53426;55.872;37.462;2023-12-20T13:58:33;2.78;;;2.17;;
66384;SDS011;53426;55.872;37.462;2023-12-20T14:00:59;4.55;;;2.40;;
66384;SDS011;53426;55.872;37.462;2023-12-20T14:03:25;2.22;;;1.80;;
66384;SDS011;53426;55.872;37.462;2023-12-20T14:05:51;4.18;;;2.28;;
66384;SDS011;53426;55.872;37.462;2023-12-20T14:08:17;3.17;;;1.65;;
66384;SDS011;53426;55.872;37.462;2023-12-20T14:10:43;2.55;;;1.92;;
66384;SDS011;53426;55.872;37.462;2023-12-20T14:13:09;2.45;;;1.90;;
66384;SDS011;53426;55.872;37.462;2023-12-20T14:15:35;2.17;;;1.98;;
66384;SDS011;53426;55.872;37.462;2023-12-20T14:18:06;5.18;;;2.30;;
66384;SDS011;53426;55.872;37.462;2023-12-20T14:20:37;3.63;;;2.13;;
66384;SDS011;53426;55.872;37.462;2023-12-20T14:23:05;2.30;;;2.00;;
66384;SDS011;53426;55.872;37.462;2023-12-20T14:25:31;3.72;;;2.00;;
66384;SDS011;53426;55.872;37.462;2023-12-20T14:27:57;3.45;;;2.22;;
66384;SDS011;53426;55.872;37.462;2023-12-20T14:30:23;3.92;;;2.15;;
66384;SDS011;53426;55.872;37.462;2023-12-20T14:32:50;2.30;;;2.10;;
66384;SDS011;53426;55.872;37.462;2023-12-20T14:35:16;4.38;;;2.55;;